createdAt,value
2018-11-03T00:00:00.204Z,16.03
2018-11-03T00:02:29.051Z,16.23
2018-11-03T00:04:58.004Z,17.50
2018-11-03T00:07:26.838Z,16.80
2018-11-03T00:09:55.959Z,17.30
2018-11-03T00:12:24.933Z,18.10
2018-11-03T00:14:53.700Z,16.27
2018-11-03T00:17:22.537Z,18.57
2018-11-03T00:19:51.693Z,17.80
2018-11-03T00:22:20.519Z,17.73
2018-11-03T00:24:49.384Z,17.40
2018-11-03T00:27:18.175Z,18.67
2018-11-03T00:29:47.061Z,18.73
2018-11-03T00:32:15.928Z,18.90
2018-11-03T00:34:44.780Z,18.20
2018-11-03T00:37:13.666Z,18.20
2018-11-03T00:39:42.613Z,18.87
2018-11-03T00:42:11.434Z,18.80
2018-11-03T00:44:40.441Z,19.17
2018-11-03T00:47:09.278Z,19.67
2018-11-03T00:49:38.087Z,18.73
2018-11-03T00:52:07.186Z,19.50
2018-11-03T00:54:36.123Z,20.10
2018-11-03T00:57:04.970Z,19.73
2018-11-03T00:59:34.644Z,19.63
2018-11-03T01:02:03.481Z,19.60
2018-11-03T01:04:32.253Z,20.00
2018-11-03T01:07:01.529Z,19.47
2018-11-03T01:09:30.950Z,20.20
2018-11-03T01:12:00.149Z,19.60
2018-11-03T01:14:29.042Z,20.83
2018-11-03T01:16:57.948Z,19.80
2018-11-03T01:19:26.821Z,20.80
2018-11-03T01:21:55.733Z,20.20
2018-11-03T01:24:24.538Z,19.73
2018-11-03T01:26:53.357Z,21.10
2018-11-03T01:29:22.292Z,20.97
2018-11-03T01:31:51.462Z,19.53
2018-11-03T01:34:20.424Z,21.00
2018-11-03T01:36:49.286Z,20.30
2018-11-03T01:39:18.407Z,21.43
2018-11-03T01:41:47.264Z,22.97
2018-11-03T01:44:16.183Z,21.13
2018-11-03T01:46:45.042Z,22.30
2018-11-03T01:49:14.161Z,21.77
2018-11-03T01:51:43.364Z,21.90
2018-11-03T01:54:12.165Z,22.20
2018-11-03T01:56:41.092Z,22.53
2018-11-03T01:59:09.912Z,21.23
2018-11-03T02:01:39.138Z,22.70
2018-11-03T02:04:08.001Z,22.50
2018-11-03T02:06:37.109Z,22.63
2018-11-03T02:09:07.932Z,22.67
2018-11-03T02:11:37.205Z,21.70
2018-11-03T02:14:06.050Z,22.13
2018-11-03T02:16:34.902Z,22.40
2018-11-03T02:19:04.215Z,22.70
2018-11-03T02:21:33.363Z,23.03
2018-11-03T02:24:02.718Z,22.93
2018-11-03T02:26:31.964Z,23.27
2018-11-03T02:29:01.041Z,24.17
2018-11-03T02:31:29.966Z,22.80
2018-11-03T02:33:59.124Z,22.77
2018-11-03T02:36:27.958Z,23.37
2018-11-03T02:38:56.748Z,22.97
2018-11-03T02:41:25.905Z,22.87
2018-11-03T02:43:54.665Z,22.27
2018-11-03T02:46:23.691Z,23.43
2018-11-03T02:48:52.552Z,23.13
2018-11-03T02:51:21.438Z,22.40
2018-11-03T02:53:50.251Z,23.67
2018-11-03T02:56:19.405Z,22.73
2018-11-03T02:58:48.218Z,25.00
2018-11-03T03:01:17.349Z,23.93
2018-11-03T03:03:46.152Z,23.37
2018-11-03T03:06:15.337Z,23.20
2018-11-03T03:08:44.164Z,23.77
2018-11-03T03:11:13.366Z,24.90
2018-11-03T03:13:42.266Z,23.03
2018-11-03T03:16:11.123Z,24.70
2018-11-03T03:18:39.918Z,25.03
2018-11-03T03:21:08.791Z,24.30
2018-11-03T03:23:43.756Z,22.93
2018-11-03T03:26:12.617Z,23.83
2018-11-03T03:28:41.470Z,22.93
2018-11-03T03:31:10.604Z,24.00
2018-11-03T03:33:39.431Z,24.57
2018-11-03T03:36:08.241Z,23.70
2018-11-03T03:38:37.101Z,25.10
2018-11-03T03:41:06.666Z,24.23
2018-11-03T03:43:35.580Z,25.00
2018-11-03T03:46:04.851Z,24.40
2018-11-03T03:48:33.988Z,24.20
2018-11-03T03:51:03.137Z,22.27
2018-11-03T03:53:31.976Z,23.80
2018-11-03T03:56:00.829Z,23.60
2018-11-03T03:58:29.677Z,25.03
2018-11-03T04:00:58.541Z,24.07
2018-11-03T04:03:27.331Z,24.87
2018-11-03T04:05:56.182Z,24.10
2018-11-03T04:08:25.006Z,23.13
2018-11-03T04:10:53.829Z,23.30
2018-11-03T04:13:22.734Z,25.33
2018-11-03T04:15:51.892Z,25.07
2018-11-03T04:18:20.967Z,24.70
2018-11-03T04:20:49.818Z,24.57
2018-11-03T04:23:18.696Z,24.43
2018-11-03T04:25:54.068Z,24.50
2018-11-03T04:28:23.195Z,23.10
2018-11-03T04:30:52.306Z,24.83
2018-11-03T04:33:21.365Z,23.10
2018-11-03T04:35:50.184Z,24.93
2018-11-03T04:38:18.951Z,24.43
2018-11-03T04:40:47.737Z,25.23
2018-11-03T04:43:16.517Z,25.13
2018-11-03T04:45:45.326Z,23.10
2018-11-03T04:48:14.162Z,23.83
2018-11-03T04:50:43.393Z,24.40
2018-11-03T04:53:12.214Z,24.23
2018-11-03T04:55:41.154Z,24.27
2018-11-03T04:58:09.946Z,23.23
2018-11-03T05:00:39.224Z,23.53
2018-11-03T05:03:08.027Z,24.43
2018-11-03T05:05:36.858Z,23.60
2018-11-03T05:08:05.880Z,23.57
2018-11-03T05:10:35.042Z,24.13
2018-11-03T05:13:03.857Z,22.93
2018-11-03T05:15:33.385Z,23.87
2018-11-03T05:18:02.135Z,23.70
2018-11-03T05:20:30.940Z,24.20
2018-11-03T05:22:59.802Z,23.90
2018-11-03T05:25:28.613Z,24.50
2018-11-03T05:27:57.596Z,23.60
2018-11-03T05:30:26.362Z,25.90
2018-11-03T05:32:55.561Z,24.80
2018-11-03T05:35:24.565Z,24.77
2018-11-03T05:37:53.730Z,25.10
2018-11-03T05:40:22.504Z,23.33
2018-11-03T05:42:51.292Z,25.43
2018-11-03T05:45:20.095Z,26.60
2018-11-03T05:47:48.892Z,24.47
2018-11-03T05:50:17.677Z,25.30
2018-11-03T05:52:46.873Z,25.33
2018-11-03T05:55:15.657Z,24.23
2018-11-03T05:57:44.466Z,24.47
2018-11-03T06:00:13.548Z,26.43
2018-11-03T06:02:42.526Z,25.90
2018-11-03T06:05:11.711Z,23.90
2018-11-03T06:07:40.735Z,24.93
2018-11-03T06:10:09.896Z,23.97
2018-11-03T06:12:39.329Z,24.23
2018-11-03T06:15:08.152Z,25.80
2018-11-03T06:17:36.993Z,25.10
2018-11-03T06:20:06.263Z,26.60
2018-11-03T06:22:35.287Z,26.73
2018-11-03T06:25:04.059Z,26.20
2018-11-03T06:27:33.259Z,24.73
2018-11-03T06:30:02.397Z,25.03
2018-11-03T06:32:31.813Z,24.50
2018-11-03T06:35:00.768Z,25.63
2018-11-03T06:37:30.001Z,24.93
2018-11-03T06:39:58.780Z,24.13
2018-11-03T06:42:27.609Z,25.33
2018-11-03T06:44:56.885Z,25.53
2018-11-03T06:47:25.824Z,26.07
2018-11-03T06:49:54.616Z,24.77
2018-11-03T06:52:24.006Z,24.50
2018-11-03T06:54:53.888Z,23.20
2018-11-03T06:57:22.870Z,25.30
2018-11-03T06:59:51.903Z,24.60
2018-11-03T07:02:20.844Z,26.97
2018-11-03T07:04:50.216Z,24.50
2018-11-03T07:07:19.012Z,24.67
2018-11-03T07:09:48.120Z,23.20
2018-11-03T07:12:17.757Z,25.50
2018-11-03T07:14:46.460Z,24.40
2018-11-03T07:17:16.015Z,23.70
2018-11-03T07:19:45.029Z,24.63
2018-11-03T07:22:14.282Z,24.13
2018-11-03T07:24:43.461Z,24.20
2018-11-03T07:27:12.386Z,25.63
2018-11-03T07:29:41.796Z,24.80
2018-11-03T07:32:10.911Z,24.73
2018-11-03T07:34:39.727Z,24.83
2018-11-03T07:37:08.604Z,24.23
2018-11-03T07:39:37.508Z,26.47
2018-11-03T07:42:06.899Z,25.37
2018-11-03T07:44:35.850Z,26.70
2018-11-03T07:47:04.738Z,26.10
2018-11-03T07:49:33.731Z,24.37
2018-11-03T07:52:02.637Z,25.67
2018-11-03T07:54:31.812Z,25.53
2018-11-03T07:57:00.805Z,24.83
2018-11-03T07:59:30.026Z,24.17
2018-11-03T08:01:58.844Z,26.37
2018-11-03T08:04:28.385Z,27.30
2018-11-03T08:06:57.238Z,25.43
2018-11-03T08:09:26.655Z,25.57
2018-11-03T08:11:55.801Z,24.40
2018-11-03T08:14:24.904Z,26.50
2018-11-03T08:16:53.736Z,26.90
2018-11-03T08:19:22.639Z,25.37
2018-11-03T08:21:52.073Z,27.07
2018-11-03T08:24:21.008Z,26.47
2018-11-03T08:26:49.912Z,25.90
2018-11-03T08:29:18.942Z,24.87
2018-11-03T08:31:47.855Z,25.17
2018-11-03T08:34:16.647Z,24.37
2018-11-03T08:36:45.563Z,25.13
2018-11-03T08:39:14.489Z,24.90
2018-11-03T08:41:43.382Z,25.43
2018-11-03T08:44:12.511Z,26.00
2018-11-03T08:46:41.918Z,26.50
2018-11-03T08:49:10.799Z,26.37
2018-11-03T08:51:39.673Z,27.60
2018-11-03T08:54:08.785Z,26.73
2018-11-03T08:56:37.787Z,26.20
2018-11-03T08:59:07.148Z,25.80
2018-11-03T09:01:35.998Z,26.27
2018-11-03T09:04:04.992Z,27.23
2018-11-03T09:06:34.012Z,28.37
2018-11-03T09:09:03.210Z,27.00
2018-11-03T09:11:32.139Z,28.87
2018-11-03T09:14:01.653Z,27.70
2018-11-03T09:16:30.534Z,26.13
2018-11-03T09:18:59.381Z,28.20
2018-11-03T09:21:28.251Z,26.63
2018-11-03T09:23:57.081Z,28.87
2018-11-03T09:26:26.532Z,28.07
2018-11-03T09:28:55.355Z,27.87
2018-11-03T09:31:24.523Z,27.77
2018-11-03T09:33:53.637Z,28.30
2018-11-03T09:36:22.841Z,27.27
2018-11-03T09:38:52.274Z,27.83
2018-11-03T09:41:21.117Z,29.63
2018-11-03T09:43:50.044Z,26.50
2018-11-03T09:46:18.886Z,28.00
2018-11-03T09:48:47.803Z,28.43
2018-11-03T09:51:16.778Z,27.67
2018-11-03T09:53:45.952Z,27.53
2018-11-03T09:56:14.921Z,26.40
2018-11-03T09:58:43.958Z,26.60
2018-11-03T10:01:12.775Z,27.73
2018-11-03T10:03:41.547Z,27.53
2018-11-03T10:06:10.417Z,28.10
2018-11-03T10:08:39.514Z,27.20
2018-11-03T10:11:08.550Z,26.90
2018-11-03T10:13:37.669Z,24.87
2018-11-03T10:16:07.235Z,24.80
2018-11-03T10:18:37.086Z,23.40
2018-11-03T10:21:06.532Z,23.60
2018-11-03T10:23:35.587Z,23.87
2018-11-03T10:26:04.671Z,22.73
2018-11-03T10:28:33.987Z,23.77
2018-11-03T10:31:03.056Z,24.50
2018-11-03T10:33:31.969Z,22.90
2018-11-03T10:36:01.039Z,23.93
2018-11-03T10:38:30.150Z,24.87
2018-11-03T10:40:59.002Z,23.87
2018-11-03T10:43:27.869Z,21.00
2018-11-03T10:45:56.702Z,21.90
2018-11-03T10:48:25.432Z,22.57
2018-11-03T10:50:54.310Z,25.07
2018-11-03T10:53:23.292Z,22.70
2018-11-03T10:55:52.213Z,22.97
2018-11-03T10:58:21.122Z,22.13
2018-11-03T11:01:52.628Z,23.87
2018-11-03T11:04:26.673Z,22.20
2018-11-03T11:07:00.751Z,21.43
2018-11-03T11:09:35.961Z,19.43
2018-11-03T11:12:10.699Z,20.17
2018-11-03T11:14:39.587Z,20.17
2018-11-03T11:17:08.882Z,20.80
2018-11-03T11:19:37.754Z,19.70
2018-11-03T11:22:07.038Z,21.40
2018-11-03T11:24:36.028Z,21.60
2018-11-03T11:27:05.402Z,22.03
2018-11-03T11:29:34.312Z,17.83
2018-11-03T11:32:03.696Z,16.80
2018-11-03T11:34:32.540Z,17.00
2018-11-03T11:37:01.593Z,18.27
2018-11-03T11:39:30.478Z,19.20
2018-11-03T11:41:59.681Z,18.83
2018-11-03T11:44:28.653Z,17.43
2018-11-03T11:46:58.508Z,16.93
2018-11-03T11:49:27.594Z,17.37
2018-11-03T11:51:56.567Z,17.07
2018-11-03T11:54:25.494Z,16.23
2018-11-03T11:56:54.429Z,16.80
2018-11-03T11:59:23.297Z,15.57
2018-11-03T12:01:52.557Z,14.73
2018-11-03T12:04:21.351Z,14.60
2018-11-03T12:06:50.195Z,14.50
2018-11-03T12:09:19.097Z,13.40
2018-11-03T12:11:48.998Z,14.37
2018-11-03T12:14:17.804Z,13.70
2018-11-03T12:16:46.624Z,14.60
2018-11-03T12:19:15.384Z,14.10
2018-11-03T12:21:44.181Z,14.33
2018-11-03T12:24:14.171Z,14.40
2018-11-03T12:26:43.014Z,13.60
2018-11-03T12:29:12.253Z,13.33
2018-11-03T12:31:41.233Z,13.13
2018-11-03T12:34:10.045Z,13.20
2018-11-03T12:36:38.971Z,13.67
2018-11-03T12:39:08.801Z,12.50
2018-11-03T12:41:37.674Z,12.77
2018-11-03T12:44:06.644Z,13.60
2018-11-03T12:46:35.952Z,13.60
2018-11-03T12:49:05.180Z,14.00
2018-11-03T12:51:34.455Z,13.83
2018-11-03T12:54:03.750Z,13.30
2018-11-03T12:56:32.553Z,13.47
2018-11-03T12:59:01.582Z,13.00
2018-11-03T13:01:30.597Z,13.00
2018-11-03T13:03:59.453Z,12.97
2018-11-03T13:06:28.352Z,12.83
2018-11-03T13:08:57.320Z,12.93
2018-11-03T13:11:26.247Z,13.70
2018-11-03T13:13:55.220Z,14.17
2018-11-03T13:16:24.050Z,14.40
2018-11-03T13:18:52.845Z,13.93
2018-11-03T13:21:21.690Z,14.00
2018-11-03T13:23:50.591Z,14.73
2018-11-03T13:26:19.418Z,14.73
2018-11-03T13:28:48.264Z,13.43
2018-11-03T13:31:17.776Z,14.60
2018-11-03T13:33:46.691Z,17.60
2018-11-03T13:36:15.511Z,14.33
2018-11-03T13:38:44.791Z,14.80
2018-11-03T13:41:13.566Z,14.97
2018-11-03T13:43:42.836Z,14.50
2018-11-03T13:46:11.687Z,13.87
2018-11-03T13:48:40.640Z,13.63
2018-11-03T13:51:09.498Z,14.53
2018-11-03T13:53:38.467Z,14.07
2018-11-03T13:56:07.531Z,13.57
2018-11-03T13:58:36.399Z,14.70
2018-11-03T14:01:05.817Z,15.30
2018-11-03T14:03:34.691Z,14.57
2018-11-03T14:06:03.598Z,14.13
2018-11-03T14:08:32.427Z,13.93
2018-11-03T14:11:01.300Z,14.23
2018-11-03T14:13:30.414Z,14.40
2018-11-03T14:15:59.567Z,15.00
2018-11-03T14:18:28.547Z,14.50
2018-11-03T14:20:57.422Z,14.67
2018-11-03T14:23:26.322Z,14.43
2018-11-03T14:25:55.134Z,14.17
2018-11-03T14:28:24.247Z,13.20
2018-11-03T14:30:53.073Z,12.60
2018-11-03T14:33:22.276Z,12.97
2018-11-03T14:35:51.138Z,13.90
2018-11-03T14:38:20.363Z,13.60
2018-11-03T14:40:50.068Z,13.13
2018-11-03T14:43:19.038Z,14.00
2018-11-03T14:45:47.902Z,13.30
2018-11-03T14:48:16.918Z,13.23
2018-11-03T14:50:46.378Z,12.93
2018-11-03T14:53:15.428Z,13.00
2018-11-03T14:55:44.279Z,12.47
2018-11-03T14:58:13.140Z,13.30
2018-11-03T15:00:42.298Z,12.77
2018-11-03T15:03:11.114Z,12.50
2018-11-03T15:05:39.998Z,12.63
2018-11-03T15:08:09.129Z,23.93
2018-11-03T15:10:37.975Z,15.17
2018-11-03T15:13:06.883Z,16.00
2018-11-03T15:15:36.135Z,12.50
2018-11-03T15:18:05.004Z,13.03
2018-11-03T15:20:33.869Z,12.47
2018-11-03T15:23:02.759Z,13.47
2018-11-03T15:25:31.597Z,13.73
2018-11-03T15:28:00.540Z,13.63
2018-11-03T15:30:29.711Z,14.10
2018-11-03T15:32:58.565Z,13.80
2018-11-03T15:35:27.389Z,13.53
2018-11-03T15:37:56.249Z,13.37
2018-11-03T15:40:25.685Z,14.17
2018-11-03T15:42:54.683Z,12.80
2018-11-03T15:45:23.989Z,16.83
2018-11-03T15:47:52.835Z,13.50
2018-11-03T15:50:21.676Z,13.80
2018-11-03T15:52:50.860Z,13.10
2018-11-03T15:55:19.686Z,12.07
2018-11-03T15:57:48.850Z,12.10
2018-11-03T16:00:19.347Z,11.87
2018-11-03T16:02:48.812Z,12.50
2018-11-03T16:05:18.137Z,11.97
2018-11-03T16:07:48.140Z,11.40
2018-11-03T16:10:17.172Z,11.80
2018-11-03T16:12:46.062Z,11.63
2018-11-03T16:15:14.841Z,12.00
2018-11-03T16:17:44.208Z,12.30
2018-11-03T16:20:13.631Z,12.17
2018-11-03T16:22:43.762Z,11.80
2018-11-03T16:25:12.637Z,11.77
2018-11-03T16:27:41.617Z,12.30
2018-11-03T16:30:12.925Z,11.90
2018-11-03T16:32:42.282Z,12.97
2018-11-03T16:35:11.236Z,13.23
2018-11-03T16:37:40.624Z,13.60
2018-11-03T16:40:11.458Z,12.63
2018-11-03T16:42:40.772Z,12.67
2018-11-03T16:45:12.176Z,13.67
2018-11-03T16:47:41.647Z,13.07
2018-11-03T16:50:12.564Z,13.87
2018-11-03T16:52:42.002Z,12.87
2018-11-03T16:55:12.365Z,13.53
2018-11-03T16:57:41.662Z,13.67
2018-11-03T17:00:12.921Z,14.27
2018-11-03T17:02:42.475Z,13.30
2018-11-03T17:05:12.579Z,13.60
2018-11-03T17:07:41.492Z,13.90
2018-11-03T17:10:17.632Z,14.97
2018-11-03T17:12:47.537Z,14.17
2018-11-03T17:15:16.965Z,14.50
2018-11-03T17:17:45.959Z,16.00
2018-11-03T17:20:14.922Z,15.87
2018-11-03T17:22:43.789Z,15.33
2018-11-03T17:25:13.954Z,16.60
2018-11-03T17:27:42.996Z,15.73
2018-11-03T17:30:16.422Z,17.37
2018-11-03T17:32:45.800Z,16.27
2018-11-03T17:35:15.305Z,15.93
2018-11-03T17:37:44.704Z,16.37
2018-11-03T17:40:13.998Z,18.03
2018-11-03T17:42:43.110Z,15.60
2018-11-03T17:45:12.455Z,16.67
2018-11-03T17:47:41.409Z,16.90
2018-11-03T17:50:11.872Z,16.63
2018-11-03T17:52:41.326Z,16.57
2018-11-03T17:55:10.879Z,18.20
2018-11-03T17:57:39.892Z,16.60
2018-11-03T18:00:12.539Z,17.37
2018-11-03T18:02:41.465Z,16.73
2018-11-03T18:05:10.466Z,16.40
2018-11-03T18:07:39.871Z,17.50
2018-11-03T18:10:10.837Z,17.70
2018-11-03T18:12:40.171Z,16.67
2018-11-03T18:15:09.635Z,17.77
2018-11-03T18:17:38.571Z,17.43
2018-11-03T18:20:10.201Z,16.70
2018-11-03T18:22:39.245Z,16.30
2018-11-03T18:25:08.696Z,16.93
2018-11-03T18:27:37.586Z,16.83
2018-11-03T18:30:08.313Z,18.33
2018-11-03T18:32:37.321Z,16.90
2018-11-03T18:35:06.472Z,17.70
2018-11-03T18:37:35.345Z,18.43
2018-11-03T18:40:04.400Z,18.50
2018-11-03T18:42:33.292Z,16.80
2018-11-03T18:45:02.240Z,16.90
2018-11-03T18:47:31.790Z,17.27
2018-11-03T18:50:00.784Z,17.10
2018-11-03T18:52:30.028Z,17.90
2018-11-03T18:54:58.961Z,18.07
2018-11-03T18:57:28.205Z,17.37
2018-11-03T18:59:57.173Z,17.10
2018-11-03T19:02:26.184Z,17.67
2018-11-03T19:04:55.237Z,19.00
2018-11-03T19:07:24.074Z,18.20
2018-11-03T19:09:54.035Z,17.70
2018-11-03T19:12:25.657Z,17.60
2018-11-03T19:14:54.665Z,17.70
2018-11-03T19:17:23.502Z,17.83
2018-11-03T19:19:52.455Z,17.97
2018-11-03T19:22:21.591Z,18.13
2018-11-03T19:24:50.747Z,17.23
2018-11-03T19:27:19.660Z,18.80
2018-11-03T19:29:48.492Z,17.77
2018-11-03T19:32:17.574Z,18.47
2018-11-03T19:34:46.607Z,18.67
2018-11-03T19:37:15.496Z,18.20
2018-11-03T19:39:44.624Z,18.53
2018-11-03T19:42:13.485Z,18.43
2018-11-03T19:44:42.441Z,18.73
2018-11-03T19:47:11.266Z,20.10
2018-11-03T19:49:40.089Z,19.37
2018-11-03T19:52:09.708Z,19.60
2018-11-03T19:54:38.686Z,20.83
2018-11-03T19:57:07.768Z,18.67
2018-11-03T19:59:36.667Z,20.87
2018-11-03T20:02:05.527Z,21.17
2018-11-03T20:04:34.473Z,18.27
2018-11-03T20:07:03.900Z,18.80
2018-11-03T20:09:32.841Z,18.37
2018-11-03T20:12:01.726Z,17.97
2018-11-03T20:14:31.092Z,19.70
2018-11-03T20:16:59.916Z,18.77
2018-11-03T20:19:29.083Z,18.83
2018-11-03T20:21:58.222Z,18.57
2018-11-03T20:24:27.228Z,20.37
2018-11-03T20:26:56.133Z,21.17
2018-11-03T20:29:25.134Z,20.10
2018-11-03T20:31:54.131Z,20.50
2018-11-03T20:34:23.442Z,19.97
2018-11-03T20:36:52.332Z,19.00
2018-11-03T20:39:21.642Z,19.03
2018-11-03T20:41:50.640Z,19.00
2018-11-03T20:44:20.234Z,18.27
2018-11-03T20:46:49.281Z,19.13
2018-11-03T20:49:18.202Z,18.83
2018-11-03T20:51:47.107Z,18.77
2018-11-03T20:54:16.100Z,19.80
2018-11-03T20:56:45.279Z,19.10
2018-11-03T20:59:14.509Z,19.27
2018-11-03T21:01:43.525Z,19.80
2018-11-03T21:04:13.610Z,19.17
2018-11-03T21:06:42.534Z,18.70
2018-11-03T21:09:12.084Z,20.57
2018-11-03T21:11:41.043Z,19.43
2018-11-03T21:14:10.209Z,17.90
2018-11-03T21:16:39.265Z,20.70
2018-11-03T21:19:09.503Z,19.57
2018-11-03T21:21:39.067Z,19.93
2018-11-03T21:24:08.764Z,20.00
2018-11-03T21:26:37.773Z,20.40
2018-11-03T21:29:08.545Z,19.50
2018-11-03T21:31:37.623Z,20.77
2018-11-03T21:34:06.952Z,20.43
2018-11-03T21:36:35.888Z,19.33
2018-11-03T21:39:06.742Z,19.47
2018-11-03T21:41:35.701Z,19.67
2018-11-03T21:44:04.626Z,19.60
2018-11-03T21:46:34.107Z,20.67
2018-11-03T21:49:03.011Z,22.30
2018-11-03T21:51:31.835Z,22.63
2018-11-03T21:54:00.984Z,20.77
2018-11-03T21:56:30.106Z,20.83
2018-11-03T21:58:59.447Z,21.97
2018-11-03T22:01:28.303Z,21.10
2018-11-03T22:03:57.604Z,20.13
2018-11-03T22:06:26.591Z,22.33
2018-11-03T22:08:55.561Z,20.83
2018-11-03T22:11:24.364Z,20.53
2018-11-03T22:13:53.565Z,21.10
2018-11-03T22:16:22.560Z,21.47
2018-11-03T22:18:51.767Z,20.97
2018-11-03T22:21:20.689Z,21.37
2018-11-03T22:23:49.652Z,20.50
2018-11-03T22:26:18.613Z,20.20
2018-11-03T22:28:47.684Z,20.23
2018-11-03T22:31:16.838Z,19.50
2018-11-03T22:33:45.756Z,20.63
2018-11-03T22:36:14.662Z,20.50
2018-11-03T22:38:43.716Z,21.57
2018-11-03T22:41:12.554Z,20.17
2018-11-03T22:43:41.921Z,19.57
2018-11-03T22:46:10.905Z,20.60
2018-11-03T22:48:39.766Z,21.87
2018-11-03T22:51:12.771Z,21.10
2018-11-03T22:53:41.775Z,20.93
2018-11-03T22:56:11.123Z,21.00
2018-11-03T22:58:40.167Z,22.13
2018-11-03T23:01:09.014Z,38.93
2018-11-03T23:03:37.778Z,25.87
2018-11-03T23:06:06.650Z,20.57
2018-11-03T23:08:35.922Z,21.10
2018-11-03T23:11:04.856Z,20.97
2018-11-03T23:13:33.723Z,20.10
2018-11-03T23:16:02.569Z,21.20
2018-11-03T23:18:31.374Z,20.70
2018-11-03T23:21:00.196Z,37.00
2018-11-03T23:23:29.042Z,23.80
2018-11-03T23:25:57.927Z,21.40
2018-11-03T23:28:26.764Z,20.80
2018-11-03T23:30:55.848Z,20.67
2018-11-03T23:33:24.942Z,19.50
2018-11-03T23:35:53.797Z,20.17
2018-11-03T23:38:22.868Z,21.63
2018-11-03T23:40:51.621Z,21.37
2018-11-03T23:43:20.457Z,20.30
2018-11-03T23:45:49.270Z,19.43
2018-11-03T23:48:18.383Z,21.10
2018-11-03T23:50:47.259Z,21.10
2018-11-03T23:53:16.112Z,19.57
2018-11-03T23:55:44.895Z,20.93
2018-11-03T23:58:13.756Z,20.80
